Time;durP1;ratioP1;P1;durP2;ratioP2;P2;SDS_P1;SDS_P2;PMS_P1;PMS_P2;Temp;Humidity;BMP_temperature;BMP_pressure;BME280_temperature;BME280_humidity;BME280_pressure;Samples;Min_cycle;Max_cycle;Signal;HPM_P1;HPM_P2
2023/01/17 00:01:05;;;;;;;;;;;27.70;98.30;;;;;;5085323;28;19908;-73
2023/01/17 00:03:33;;;;;;;;;;;27.60;98.50;;;;;;5092503;28;19912;-71
2023/01/17 00:11:28;;;;;;;;;;;27.50;98.50;;;;;;5072106;28;20038;-75
2023/01/17 00:13:55;;;;;;;;;;;27.50;98.40;;;;;;5071732;28;20365;-72
2023/01/17 00:16:22;;;;;;;;;;;27.70;98.10;;;;;;5071833;28;19991;-73
2023/01/17 00:26:01;;;;;;;;;;;27.60;98.30;;;;;;5071941;28;20299;-74
2023/01/17 01:33:51;;;;;;;;;;;29.70;95.20;;;;;;5075472;28;19927;-72
2023/01/17 01:36:18;;;;;;;;;;;29.80;95.20;;;;;;5074890;28;20368;-72
2023/01/17 01:38:45;;;;;;;;;;;29.80;94.40;;;;;;5074922;28;19915;-74
2023/01/17 01:41:11;;;;;;;;;;;29.90;94.80;;;;;;5074869;28;19958;-73
2023/01/17 01:43:46;;;;;;;;;;;30.00;94.40;;;;;;5075705;28;20504;-72
2023/01/17 01:46:24;;;;;;;;;;;30.10;94.00;;;;;;5087373;28;19908;-73
2023/01/17 01:49:02;;;;;;;;;;;30.20;94.40;;;;;;5079339;28;20369;-72
2023/01/17 01:51:39;;;;;;;;;;;30.30;93.80;;;;;;5092391;28;20002;-73
2023/01/17 01:54:29;;;;;;;;;;;30.40;93.70;;;;;;5082621;28;19923;-73
2023/01/17 01:56:57;;;;;;;;;;;30.40;92.20;;;;;;5071376;28;19966;-74
2023/01/17 01:59:24;;;;;;;;;;;30.10;93.00;;;;;;5074717;28;19909;-72
2023/01/17 02:01:52;;;;;;;;;;;30.20;93.20;;;;;;5091997;28;19930;-73
2023/01/17 02:04:20;;;;;;;;;;;29.80;93.90;;;;;;5082203;28;19909;-73
2023/01/17 02:06:52;;;;;;;;;;;29.90;94.10;;;;;;5074644;28;19908;-73
2023/01/17 02:09:19;;;;;;;;;;;30.10;94.10;;;;;;5074641;28;20425;-73
2023/01/17 02:11:46;;;;;;;;;;;30.40;94.10;;;;;;5074539;28;19931;-74
2023/01/17 02:14:20;;;;;;;;;;;30.50;93.30;;;;;;5074016;28;19913;-73
2023/01/17 02:16:53;;;;;;;;;;;30.40;92.60;;;;;;5074230;28;20057;-73
2023/01/17 02:19:26;;;;;;;;;;;30.30;93.60;;;;;;5082500;28;19919;-73
2023/01/17 02:21:55;;;;;;;;;;;30.20;93.20;;;;;;5094393;28;19908;-73
2023/01/17 02:24:22;;;;;;;;;;;30.00;93.70;;;;;;5083599;28;19940;-72
2023/01/17 02:27:13;;;;;;;;;;;30.10;94.20;;;;;;5073982;28;19946;-72
2023/01/17 02:29:57;;;;;;;;;;;30.40;93.60;;;;;;5072735;28;19908;-72
2023/01/17 02:32:24;;;;;;;;;;;30.50;93.10;;;;;;5073941;28;20279;-72
2023/01/17 02:34:59;;;;;;;;;;;30.50;92.80;;;;;;5073267;28;19948;-73
2023/01/17 02:37:33;;;;;;;;;;;30.50;93.40;;;;;;5071448;28;19912;-73
2023/01/17 02:40:20;;;;;;;;;;;30.30;93.30;;;;;;5073888;28;19908;-74
2023/01/17 02:42:52;;;;;;;;;;;30.20;93.80;;;;;;5073372;28;19909;-72
2023/01/17 02:45:19;;;;;;;;;;;30.60;92.50;;;;;;5073937;28;19943;-73
2023/01/17 02:47:46;;;;;;;;;;;30.30;92.30;;;;;;5072889;28;19916;-72
2023/01/17 02:50:17;;;;;;;;;;;30.10;91.90;;;;;;5073622;28;19916;-72
2023/01/17 02:52:56;;;;;;;;;;;29.80;91.90;;;;;;5073053;28;19908;-73
2023/01/17 02:55:37;;;;;;;;;;;30.00;92.60;;;;;;5073878;28;19916;-73
2023/01/17 02:58:16;;;;;;;;;;;30.30;92.00;;;;;;5073454;28;19909;-71
2023/01/17 03:00:43;;;;;;;;;;;30.60;92.40;;;;;;5073981;28;19940;-74
2023/01/17 03:03:19;;;;;;;;;;;31.10;91.80;;;;;;5073963;28;19909;-74
2023/01/17 03:05:49;;;;;;;;;;;31.00;91.70;;;;;;5073792;28;20450;-72
2023/01/17 03:08:16;;;;;;;;;;;30.80;91.70;;;;;;5073517;28;20361;-72
2023/01/17 03:10:46;;;;;;;;;;;30.90;92.10;;;;;;5072583;28;19909;-73
2023/01/17 03:13:13;;;;;;;;;;;31.00;90.90;;;;;;5073232;28;19916;-74
2023/01/17 03:15:40;;;;;;;;;;;31.40;90.10;;;;;;5073566;28;19917;-72
2023/01/17 03:18:11;;;;;;;;;;;32.10;90.30;;;;;;5075870;28;20117;-73
2023/01/17 03:20:38;;;;;;;;;;;33.20;87.00;;;;;;5093866;28;19908;-71
2023/01/17 03:23:05;;;;;;;;;;;34.00;87.50;;;;;;5096562;28;19931;-73
2023/01/17 03:25:32;;;;;;;;;;;34.90;85.30;;;;;;5110482;28;19915;-72
2023/01/17 03:27:58;;;;;;;;;;;35.20;81.20;;;;;;5094725;28;19908;-72
2023/01/17 03:30:25;;;;;;;;;;;35.30;80.70;;;;;;5091813;28;19987;-74
2023/01/17 03:32:52;;;;;;;;;;;35.50;81.10;;;;;;5091221;28;19927;-69
2023/01/17 03:35:18;;;;;;;;;;;36.40;80.50;;;;;;5094406;28;19919;-73
2023/01/17 03:37:45;;;;;;;;;;;36.30;78.10;;;;;;5083704;28;19939;-72
2023/01/17 03:40:12;;;;;;;;;;;36.20;79.20;;;;;;5096811;28;19955;-73
2023/01/17 03:42:38;;;;;;;;;;;36.50;77.90;;;;;;5095977;28;20340;-73
2023/01/17 03:45:08;;;;;;;;;;;36.20;78.60;;;;;;5094212;28;20322;-73
2023/01/17 03:47:35;;;;;;;;;;;36.30;78.20;;;;;;5093885;28;19912;-75
2023/01/17 03:50:02;;;;;;;;;;;37.10;76.70;;;;;;5094235;28;19919;-71
2023/01/17 03:52:29;;;;;;;;;;;38.00;74.30;;;;;;5092588;28;19908;-74
2023/01/17 03:54:55;;;;;;;;;;;38.30;74.20;;;;;;5093326;28;19916;-73
2023/01/17 03:57:22;;;;;;;;;;;38.80;73.40;;;;;;5092966;28;20003;-72
2023/01/17 03:59:49;;;;;;;;;;;39.30;73.20;;;;;;5093390;28;19948;-71
2023/01/17 04:02:16;;;;;;;;;;;39.20;72.40;;;;;;5093055;28;20001;-72
2023/01/17 04:04:42;;;;;;;;;;;38.80;72.50;;;;;;5093092;28;20360;-74
2023/01/17 04:07:09;;;;;;;;;;;36.60;76.70;;;;;;5092368;28;19909;-74
2023/01/17 04:09:36;;;;;;;;;;;36.50;76.60;;;;;;5091919;28;19908;-71
2023/01/17 04:12:02;;;;;;;;;;;37.40;76.30;;;;;;5072719;28;19909;-72
2023/01/17 04:14:29;;;;;;;;;;;38.30;75.20;;;;;;5072786;28;19918;-73
2023/01/17 04:16:56;;;;;;;;;;;38.50;72.90;;;;;;5072379;28;19999;-73
2023/01/17 04:19:23;;;;;;;;;;;37.40;75.20;;;;;;5091707;28;19908;-72
2023/01/17 04:21:49;;;;;;;;;;;36.20;76.40;;;;;;5092379;28;19908;-72
2023/01/17 04:24:16;;;;;;;;;;;35.00;78.60;;;;;;5092378;28;20003;-71
2023/01/17 04:26:42;;;;;;;;;;;34.80;78.50;;;;;;5092318;28;19931;-72
2023/01/17 04:29:09;;;;;;;;;;;34.10;80.00;;;;;;5091969;28;19908;-71
2023/01/17 04:31:36;;;;;;;;;;;33.90;80.20;;;;;;5092236;28;19915;-71
2023/01/17 04:34:02;;;;;;;;;;;34.80;78.40;;;;;;5092301;28;19920;-73
2023/01/17 04:36:29;;;;;;;;;;;35.10;78.20;;;;;;5092327;28;19965;-72
2023/01/17 04:38:56;;;;;;;;;;;35.50;78.40;;;;;;5091100;28;19989;-70
2023/01/17 04:41:22;;;;;;;;;;;36.00;77.90;;;;;;5091831;28;19912;-71
2023/01/17 04:43:49;;;;;;;;;;;36.50;77.10;;;;;;5092508;28;19916;-70
2023/01/17 04:46:16;;;;;;;;;;;37.00;75.90;;;;;;5092011;28;19908;-71
2023/01/17 04:48:42;;;;;;;;;;;37.60;74.80;;;;;;5092023;28;19968;-72
2023/01/17 04:51:09;;;;;;;;;;;37.30;75.00;;;;;;5092001;28;19908;-72
2023/01/17 04:53:36;;;;;;;;;;;38.20;73.50;;;;;;5092022;28;19953;-71
2023/01/17 04:56:03;;;;;;;;;;;37.90;73.80;;;;;;5081779;28;20042;-72
2023/01/17 04:58:30;;;;;;;;;;;37.70;74.10;;;;;;5082003;28;20280;-71
2023/01/17 05:01:00;;;;;;;;;;;38.10;73.60;;;;;;5092058;28;20288;-70
2023/01/17 05:03:28;;;;;;;;;;;37.40;75.40;;;;;;5092165;28;19913;-70
2023/01/17 05:05:54;;;;;;;;;;;37.60;76.10;;;;;;5092455;28;19908;-70
2023/01/17 05:08:21;;;;;;;;;;;39.20;71.40;;;;;;5091818;28;20265;-70
2023/01/17 05:10:48;;;;;;;;;;;38.50;71.30;;;;;;5091665;28;19912;-70
2023/01/17 05:13:14;;;;;;;;;;;37.10;73.10;;;;;;5092044;28;19908;-71
2023/01/17 05:15:41;;;;;;;;;;;36.40;75.50;;;;;;5091783;28;19963;-71
2023/01/17 05:18:11;;;;;;;;;;;36.70;76.20;;;;;;5091752;28;19912;-71
2023/01/17 05:20:38;;;;;;;;;;;37.60;73.60;;;;;;5092007;28;19918;-69
2023/01/17 05:23:04;;;;;;;;;;;38.10;73.40;;;;;;5092149;28;20319;-71
2023/01/17 05:25:31;;;;;;;;;;;38.40;72.90;;;;;;5091391;28;19908;-70
2023/01/17 05:28:01;;;;;;;;;;;38.00;72.90;;;;;;5091622;28;19908;-71
2023/01/17 05:30:29;;;;;;;;;;;37.30;74.00;;;;;;5091667;28;19908;-70
2023/01/17 05:32:56;;;;;;;;;;;36.50;74.50;;;;;;5091897;28;19919;-72
2023/01/17 05:35:24;;;;;;;;;;;36.50;75.70;;;;;;5091275;28;19923;-72
2023/01/17 05:37:51;;;;;;;;;;;36.40;74.60;;;;;;5091218;28;19915;-71
2023/01/17 05:40:19;;;;;;;;;;;35.60;76.40;;;;;;5091178;28;19923;-71
2023/01/17 05:42:50;;;;;;;;;;;35.10;78.00;;;;;;5091896;28;19908;-70
2023/01/17 05:45:18;;;;;;;;;;;34.80;78.10;;;;;;5092256;28;20332;-70
2023/01/17 05:47:46;;;;;;;;;;;34.70;78.30;;;;;;5090701;28;19908;-69
2023/01/17 05:50:14;;;;;;;;;;;34.90;78.20;;;;;;5092085;28;20348;-69
2023/01/17 05:52:40;;;;;;;;;;;35.80;76.20;;;;;;5092282;28;19914;-71
2023/01/17 05:55:08;;;;;;;;;;;35.10;76.80;;;;;;5094963;28;19916;-74
2023/01/17 05:57:34;;;;;;;;;;;34.00;79.00;;;;;;5095364;28;19908;-71
2023/01/17 06:00:01;;;;;;;;;;;34.00;79.10;;;;;;5090297;28;20360;-70
2023/01/17 06:02:28;;;;;;;;;;;33.50;80.20;;;;;;5094251;28;19981;-71
2023/01/17 06:04:54;;;;;;;;;;;34.10;80.10;;;;;;5095595;28;19961;-71
2023/01/17 06:07:21;;;;;;;;;;;34.90;78.00;;;;;;5095832;28;19912;-71
2023/01/17 06:09:47;;;;;;;;;;;35.10;78.30;;;;;;5095682;28;20318;-71
2023/01/17 06:12:14;;;;;;;;;;;35.30;76.80;;;;;;5093921;28;19908;-71
2023/01/17 06:14:41;;;;;;;;;;;34.70;77.60;;;;;;5094311;28;19939;-71
2023/01/17 06:17:07;;;;;;;;;;;34.00;79.20;;;;;;5075058;28;19912;-72
2023/01/17 06:19:34;;;;;;;;;;;33.20;81.20;;;;;;5075280;28;19915;-72
2023/01/17 06:22:00;;;;;;;;;;;32.40;81.70;;;;;;5074328;28;20048;-71
2023/01/17 06:24:29;;;;;;;;;;;30.90;85.70;;;;;;5082951;28;20469;-71
2023/01/17 06:26:56;;;;;;;;;;;30.80;86.90;;;;;;5081809;28;19997;-71
2023/01/17 06:29:22;;;;;;;;;;;30.20;87.90;;;;;;5100486;28;19969;-71
2023/01/17 06:31:49;;;;;;;;;;;30.10;88.80;;;;;;5091459;28;20369;-70
2023/01/17 06:34:16;;;;;;;;;;;30.20;87.90;;;;;;5089844;28;20571;-69
2023/01/17 06:36:43;;;;;;;;;;;30.20;88.10;;;;;;5086334;28;19951;-69
2023/01/17 06:39:10;;;;;;;;;;;30.10;88.20;;;;;;5078857;28;20344;-70
2023/01/17 06:41:37;;;;;;;;;;;29.90;88.20;;;;;;5098280;28;19916;-71
2023/01/17 06:44:03;;;;;;;;;;;29.70;90.00;;;;;;5093353;28;19912;-71
2023/01/17 06:46:30;;;;;;;;;;;29.30;90.00;;;;;;5088867;28;19908;-70
2023/01/17 06:48:56;;;;;;;;;;;29.20;90.60;;;;;;5089898;28;20062;-70
2023/01/17 06:51:23;;;;;;;;;;;29.00;90.80;;;;;;5092999;28;20369;-70
2023/01/17 06:53:50;;;;;;;;;;;29.00;91.00;;;;;;5092862;28;19912;-71
2023/01/17 06:56:17;;;;;;;;;;;29.10;91.20;;;;;;5090650;28;19930;-72
2023/01/17 06:58:43;;;;;;;;;;;29.10;90.20;;;;;;5089593;28;20318;-70
2023/01/17 07:01:11;;;;;;;;;;;28.70;90.90;;;;;;5073368;28;19908;-69
2023/01/17 07:03:38;;;;;;;;;;;28.70;90.60;;;;;;5091414;28;19908;-69
2023/01/17 07:06:05;;;;;;;;;;;28.60;91.00;;;;;;5092492;28;20348;-69
2023/01/17 07:08:31;;;;;;;;;;;28.70;91.10;;;;;;5083759;28;19988;-70
2023/01/17 07:10:59;;;;;;;;;;;28.60;91.60;;;;;;5073589;28;19908;-70
2023/01/17 07:13:26;;;;;;;;;;;28.40;91.70;;;;;;5089642;28;19952;-70
2023/01/17 07:15:53;;;;;;;;;;;28.50;91.40;;;;;;5092999;28;19916;-71
2023/01/17 07:18:22;;;;;;;;;;;28.30;91.80;;;;;;5101164;28;20276;-70
2023/01/17 07:20:49;;;;;;;;;;;28.20;92.60;;;;;;5093038;28;19915;-70
2023/01/17 07:23:16;;;;;;;;;;;28.20;92.60;;;;;;5077950;28;19913;-70
2023/01/17 07:25:43;;;;;;;;;;;28.20;92.50;;;;;;5079003;28;20377;-69
2023/01/17 07:28:09;;;;;;;;;;;28.20;92.50;;;;;;5079099;28;19912;-71
2023/01/17 07:30:36;;;;;;;;;;;28.00;92.80;;;;;;5091643;28;19908;-71
2023/01/17 07:33:03;;;;;;;;;;;27.90;92.90;;;;;;5087348;28;20018;-68
2023/01/17 07:35:29;;;;;;;;;;;27.70;93.40;;;;;;5092731;28;19920;-70
2023/01/17 07:37:56;;;;;;;;;;;27.40;94.00;;;;;;5088270;28;19912;-69
2023/01/17 07:40:23;;;;;;;;;;;27.50;94.10;;;;;;5072293;28;19923;-70
2023/01/17 07:42:49;;;;;;;;;;;27.60;94.00;;;;;;5080074;28;19999;-69
2023/01/17 07:45:16;;;;;;;;;;;27.90;93.40;;;;;;5072555;28;20046;-70
2023/01/17 07:47:43;;;;;;;;;;;27.70;93.50;;;;;;5086847;28;20003;-70
2023/01/17 07:50:10;;;;;;;;;;;27.60;93.70;;;;;;5072592;28;20007;-69
2023/01/17 07:52:37;;;;;;;;;;;27.70;93.90;;;;;;5080293;28;19908;-70
2023/01/17 07:55:04;;;;;;;;;;;27.70;94.30;;;;;;5071935;28;19913;-71
2023/01/17 07:57:31;;;;;;;;;;;27.70;94.00;;;;;;5081595;28;19919;-69
2023/01/17 07:59:58;;;;;;;;;;;27.70;94.00;;;;;;5091201;27;19912;-70
2023/01/17 08:02:25;;;;;;;;;;;27.60;94.30;;;;;;5087369;28;19908;-69
2023/01/17 08:04:51;;;;;;;;;;;27.40;94.30;;;;;;5092631;28;19912;-68
2023/01/17 08:07:18;;;;;;;;;;;27.30;94.20;;;;;;5092055;28;20277;-69
2023/01/17 08:09:48;;;;;;;;;;;26.90;94.80;;;;;;5073498;28;19998;-70
2023/01/17 08:12:15;;;;;;;;;;;26.70;94.90;;;;;;5079877;28;19917;-69
2023/01/17 08:14:42;;;;;;;;;;;26.50;95.50;;;;;;5072066;28;20331;-68
2023/01/17 08:17:13;;;;;;;;;;;26.50;95.70;;;;;;5085234;28;19911;-69
2023/01/17 08:19:40;;;;;;;;;;;26.40;96.10;;;;;;5094417;28;20341;-69
2023/01/17 08:22:06;;;;;;;;;;;26.40;96.10;;;;;;5092035;28;19912;-70
2023/01/17 08:24:33;;;;;;;;;;;26.30;95.60;;;;;;5091103;28;19915;-70
2023/01/17 08:27:00;;;;;;;;;;;26.20;96.10;;;;;;5092167;28;19961;-70
2023/01/17 08:29:26;;;;;;;;;;;26.20;95.90;;;;;;5077552;28;19912;-71
2023/01/17 08:31:53;;;;;;;;;;;26.10;95.20;;;;;;5076566;28;19924;-71
2023/01/17 08:34:21;;;;;;;;;;;26.00;95.40;;;;;;5082227;28;19920;-72
2023/01/17 08:36:54;;;;;;;;;;;25.80;95.80;;;;;;5091048;28;21275;-71
2023/01/17 08:39:21;;;;;;;;;;;25.70;96.00;;;;;;5089781;28;19966;-71
2023/01/17 08:41:48;;;;;;;;;;;25.60;96.40;;;;;;5091307;28;19914;-71
2023/01/17 08:44:14;;;;;;;;;;;25.60;96.20;;;;;;5086552;28;19948;-71
2023/01/17 08:46:42;;;;;;;;;;;25.60;96.20;;;;;;5071525;28;19919;-71
2023/01/17 08:49:10;;;;;;;;;;;25.50;96.50;;;;;;5082985;28;19912;-71
2023/01/17 08:51:37;;;;;;;;;;;25.50;96.50;;;;;;5082459;28;19908;-70
2023/01/17 08:54:04;;;;;;;;;;;25.60;96.50;;;;;;5075053;28;19908;-71
2023/01/17 08:56:30;;;;;;;;;;;25.50;96.50;;;;;;5083498;28;19923;-71
2023/01/17 08:58:57;;;;;;;;;;;25.30;96.90;;;;;;5080661;28;19919;-72
2023/01/17 09:01:24;;;;;;;;;;;25.20;97.30;;;;;;5083515;28;20344;-71
2023/01/17 09:03:51;;;;;;;;;;;25.20;97.60;;;;;;5070088;28;20365;-70
2023/01/17 09:06:18;;;;;;;;;;;25.10;97.90;;;;;;5070974;28;19967;-70
2023/01/17 09:08:45;;;;;;;;;;;25.00;98.10;;;;;;5078787;28;19955;-70
2023/01/17 09:11:13;;;;;;;;;;;25.00;98.50;;;;;;5085215;28;19912;-71
2023/01/17 09:13:39;;;;;;;;;;;25.00;98.50;;;;;;5070754;28;20400;-71
2023/01/17 09:16:07;;;;;;;;;;;25.00;98.80;;;;;;5083183;28;19920;-71
2023/01/17 09:18:34;;;;;;;;;;;24.90;99.10;;;;;;5103443;28;19912;-70
2023/01/17 09:21:20;;;;;;;;;;;24.90;99.10;;;;;;5087346;28;19978;-70
2023/01/17 09:23:47;;;;;;;;;;;24.80;99.60;;;;;;5070595;28;20011;-70
2023/01/17 09:26:18;;;;;;;;;;;24.70;99.90;;;;;;5090428;28;20008;-68
2023/01/17 09:28:45;;;;;;;;;;;24.70;99.90;;;;;;5090212;28;19920;-70
2023/01/17 09:31:11;;;;;;;;;;;24.60;99.90;;;;;;5103529;28;19912;-69
2023/01/17 09:33:41;;;;;;;;;;;24.60;99.90;;;;;;5102411;28;19928;-69
2023/01/17 09:36:09;;;;;;;;;;;24.50;99.90;;;;;;5101313;28;19919;-71
2023/01/17 09:38:36;;;;;;;;;;;24.50;99.90;;;;;;5102507;28;20283;-70
2023/01/17 09:41:03;;;;;;;;;;;24.50;99.90;;;;;;5104530;28;19908;-70
2023/01/17 09:43:42;;;;;;;;;;;24.50;99.90;;;;;;5098157;28;19916;-69
2023/01/17 09:46:27;;;;;;;;;;;24.50;99.90;;;;;;5108470;28;19913;-70
2023/01/17 09:49:01;;;;;;;;;;;24.60;99.90;;;;;;5101552;28;19918;-71
2023/01/17 09:51:28;;;;;;;;;;;24.60;99.90;;;;;;5105659;28;20276;-69
2023/01/17 09:53:54;;;;;;;;;;;24.60;99.90;;;;;;5098900;28;19938;-70
2023/01/17 09:56:28;;;;;;;;;;;24.50;99.90;;;;;;5086253;28;19940;-69
2023/01/17 09:59:07;;;;;;;;;;;24.50;99.90;;;;;;5075675;28;19913;-68
2023/01/17 10:01:37;;;;;;;;;;;24.40;99.90;;;;;;5091922;28;20026;-69
2023/01/17 10:04:21;;;;;;;;;;;24.30;99.90;;;;;;5092578;28;20378;-69
2023/01/17 10:06:57;;;;;;;;;;;24.30;99.90;;;;;;5080545;28;19908;-70
2023/01/17 10:09:42;;;;;;;;;;;24.40;99.90;;;;;;5083946;28;19912;-71
2023/01/17 10:12:08;;;;;;;;;;;24.30;99.90;;;;;;5092558;28;20310;-68
2023/01/17 10:14:38;;;;;;;;;;;24.30;99.90;;;;;;5094336;28;19999;-72
2023/01/17 10:17:16;;;;;;;;;;;24.30;99.90;;;;;;5095567;28;19916;-72
2023/01/17 10:20:01;;;;;;;;;;;24.20;99.90;;;;;;5094714;28;19908;-71
2023/01/17 10:22:33;;;;;;;;;;;24.30;99.90;;;;;;5084672;28;19912;-72
2023/01/17 10:25:00;;;;;;;;;;;24.50;99.90;;;;;;5081929;28;19912;-71
2023/01/17 10:27:33;;;;;;;;;;;24.30;99.90;;;;;;5080605;28;19935;-72
2023/01/17 10:30:01;;;;;;;;;;;24.30;99.90;;;;;;5082311;28;19982;-71
2023/01/17 10:32:29;;;;;;;;;;;24.20;99.90;;;;;;5085135;28;19916;-71
2023/01/17 10:34:57;;;;;;;;;;;24.10;99.90;;;;;;5087816;28;19924;-70
2023/01/17 10:37:27;;;;;;;;;;;24.00;99.90;;;;;;5076045;28;19915;-69
2023/01/17 10:39:55;;;;;;;;;;;24.00;99.90;;;;;;5082324;28;19913;-69
2023/01/17 10:42:25;;;;;;;;;;;24.00;99.90;;;;;;5092504;28;19908;-70
2023/01/17 10:45:09;;;;;;;;;;;24.00;99.90;;;;;;5090798;28;19919;-70
2023/01/17 10:47:38;;;;;;;;;;;24.00;99.90;;;;;;5090182;28;19912;-71
2023/01/17 10:50:05;;;;;;;;;;;24.00;99.90;;;;;;5090852;28;19912;-70
2023/01/17 10:52:47;;;;;;;;;;;24.20;99.90;;;;;;5092750;28;19915;-72
2023/01/17 10:55:16;;;;;;;;;;;24.20;99.90;;;;;;5083454;28;19955;-72
2023/01/17 10:57:44;;;;;;;;;;;24.20;99.90;;;;;;5090751;28;20307;-71
2023/01/17 11:00:22;;;;;;;;;;;24.20;99.90;;;;;;5089790;28;19912;-71
2023/01/17 11:02:49;;;;;;;;;;;24.10;99.90;;;;;;5083629;28;19919;-70
2023/01/17 11:05:30;;;;;;;;;;;24.20;99.90;;;;;;5085592;28;19916;-71
2023/01/17 11:07:58;;;;;;;;;;;24.20;99.90;;;;;;5090581;28;19912;-70
2023/01/17 11:10:40;;;;;;;;;;;24.20;99.90;;;;;;5089065;28;19995;-70
2023/01/17 11:13:18;;;;;;;;;;;24.10;99.90;;;;;;5090401;28;19914;-71
2023/01/17 11:15:47;;;;;;;;;;;24.10;99.90;;;;;;5091862;28;20014;-70
2023/01/17 11:18:18;;;;;;;;;;;24.10;99.90;;;;;;5091862;28;19912;-70
2023/01/17 11:20:46;;;;;;;;;;;24.10;99.90;;;;;;5091080;28;19919;-69
2023/01/17 11:23:21;;;;;;;;;;;24.10;99.90;;;;;;5091037;28;19912;-70
2023/01/17 11:25:50;;;;;;;;;;;24.00;99.90;;;;;;5090138;28;19913;-70
2023/01/17 11:28:22;;;;;;;;;;;24.00;99.90;;;;;;5089262;28;19908;-70
2023/01/17 11:30:58;;;;;;;;;;;24.00;99.90;;;;;;5091977;28;19916;-71
2023/01/17 11:33:33;;;;;;;;;;;24.00;99.90;;;;;;5089357;28;20388;-72
2023/01/17 11:36:00;;;;;;;;;;;24.10;99.90;;;;;;5072643;28;19924;-70
2023/01/17 11:38:26;;;;;;;;;;;24.00;99.90;;;;;;5089218;28;20330;-71
2023/01/17 11:41:18;;;;;;;;;;;24.00;99.90;;;;;;5072610;28;20452;-72
2023/01/17 11:43:48;;;;;;;;;;;24.00;99.90;;;;;;5080422;28;19921;-71
2023/01/17 11:46:27;;;;;;;;;;;23.90;99.90;;;;;;5091826;28;19908;-71
2023/01/17 11:48:54;;;;;;;;;;;24.00;99.90;;;;;;5088766;28;19995;-70
2023/01/17 11:51:40;;;;;;;;;;;24.00;99.90;;;;;;5090353;28;19908;-69
2023/01/17 11:54:06;;;;;;;;;;;23.90;99.90;;;;;;5091665;28;19912;-71
2023/01/17 11:56:35;;;;;;;;;;;23.80;99.90;;;;;;5092137;28;20381;-69
2023/01/17 11:59:19;;;;;;;;;;;23.80;99.90;;;;;;5091460;28;19918;-70
2023/01/17 12:02:06;;;;;;;;;;;23.80;99.90;;;;;;5091742;28;20368;-69
2023/01/17 12:04:47;;;;;;;;;;;23.80;99.90;;;;;;5065059;28;19912;-69
2023/01/17 12:07:13;;;;;;;;;;;23.80;99.90;;;;;;5083628;28;20353;-68
2023/01/17 12:09:58;;;;;;;;;;;23.70;99.90;;;;;;5072918;28;19995;-69
2023/01/17 12:15:25;;;;;;;;;;;23.60;99.90;;;;;;5090421;28;19922;-69
2023/01/17 12:17:54;;;;;;;;;;;23.60;99.90;;;;;;5091436;28;19957;-68
2023/01/17 12:20:40;;;;;;;;;;;23.60;99.90;;;;;;5078044;28;19915;-69
2023/01/17 12:23:12;;;;;;;;;;;23.60;99.90;;;;;;5092053;28;19962;-68
2023/01/17 12:25:54;;;;;;;;;;;23.60;99.90;;;;;;5092527;28;19973;-69
2023/01/17 12:28:38;;;;;;;;;;;23.70;99.90;;;;;;5072340;28;19970;-69
2023/01/17 12:31:17;;;;;;;;;;;23.70;99.90;;;;;;5078157;28;19958;-69
2023/01/17 12:34:08;;;;;;;;;;;23.70;99.90;;;;;;5092616;28;19920;-69
2023/01/17 12:36:41;;;;;;;;;;;23.80;99.90;;;;;;5085111;28;19924;-69
2023/01/17 12:39:10;;;;;;;;;;;23.70;99.90;;;;;;5072445;28;19913;-69
2023/01/17 12:41:57;;;;;;;;;;;23.70;99.90;;;;;;5072095;28;20365;-68
2023/01/17 12:44:32;;;;;;;;;;;23.60;99.90;;;;;;5071876;28;19908;-70
2023/01/17 12:47:03;;;;;;;;;;;23.60;99.90;;;;;;5081800;28;19952;-71
2023/01/17 12:49:33;;;;;;;;;;;23.70;99.90;;;;;;5091743;28;19954;-70
2023/01/17 12:52:06;;;;;;;;;;;23.70;99.90;;;;;;5092501;28;19915;-70
2023/01/17 12:54:38;;;;;;;;;;;23.70;99.90;;;;;;5092268;28;20043;-70
2023/01/17 12:57:14;;;;;;;;;;;23.70;99.90;;;;;;5090226;28;19935;-69
2023/01/17 12:59:41;;;;;;;;;;;23.70;99.90;;;;;;5091977;28;19909;-70
2023/01/17 13:02:24;;;;;;;;;;;23.70;99.90;;;;;;5092082;28;20424;-69
2023/01/17 13:04:56;;;;;;;;;;;23.70;99.90;;;;;;5096930;28;19948;-71
2023/01/17 13:07:35;;;;;;;;;;;23.60;99.90;;;;;;5083363;28;19951;-69
2023/01/17 13:10:16;;;;;;;;;;;23.70;99.90;;;;;;5076357;28;20383;-69
2023/01/17 13:12:43;;;;;;;;;;;23.70;99.90;;;;;;5076311;28;20357;-69
2023/01/17 13:15:17;;;;;;;;;;;23.60;99.90;;;;;;5075894;28;19977;-68
2023/01/17 13:18:08;;;;;;;;;;;23.60;99.90;;;;;;5091174;28;20050;-68
2023/01/17 13:20:51;;;;;;;;;;;23.60;99.90;;;;;;5095709;28;19908;-69
2023/01/17 13:23:39;;;;;;;;;;;23.50;99.90;;;;;;5095996;28;20391;-69
2023/01/17 13:26:12;;;;;;;;;;;23.50;99.90;;;;;;5080637;28;19978;-69
2023/01/17 13:28:42;;;;;;;;;;;23.50;99.90;;;;;;5095756;28;20002;-69
2023/01/17 13:31:21;;;;;;;;;;;23.40;99.90;;;;;;5096151;28;19952;-69
2023/01/17 13:34:02;;;;;;;;;;;23.50;99.90;;;;;;5096168;28;19920;-69
2023/01/17 13:36:37;;;;;;;;;;;23.40;99.90;;;;;;5089023;28;19947;-69
2023/01/17 13:39:03;;;;;;;;;;;23.40;99.90;;;;;;5075438;28;19912;-69
2023/01/17 13:41:45;;;;;;;;;;;23.30;99.90;;;;;;5075678;28;19955;-69
2023/01/17 13:44:21;;;;;;;;;;;23.30;99.90;;;;;;5074990;28;19908;-70
2023/01/17 13:46:52;;;;;;;;;;;23.30;99.90;;;;;;5082136;28;19947;-69
2023/01/17 13:49:22;;;;;;;;;;;23.20;99.90;;;;;;5095755;28;20392;-69
2023/01/17 13:52:01;;;;;;;;;;;23.20;99.90;;;;;;5095893;28;19914;-69
2023/01/17 13:54:31;;;;;;;;;;;23.20;99.90;;;;;;5091206;28;19916;-69
2023/01/17 13:57:16;;;;;;;;;;;23.20;99.90;;;;;;5083241;28;20324;-69
2023/01/17 13:59:43;;;;;;;;;;;23.20;99.90;;;;;;5095548;28;19908;-68
2023/01/17 14:02:27;;;;;;;;;;;23.10;99.90;;;;;;5095340;28;19978;-69
2023/01/17 14:05:22;;;;;;;;;;;23.10;99.90;;;;;;5095399;28;19947;-69
2023/01/17 14:07:49;;;;;;;;;;;23.10;99.90;;;;;;5079669;28;19912;-69
2023/01/17 14:10:23;;;;;;;;;;;23.10;99.90;;;;;;5073220;28;19909;-69
2023/01/17 14:12:50;;;;;;;;;;;23.10;99.90;;;;;;5074905;28;20281;-69
2023/01/17 14:15:24;;;;;;;;;;;23.10;99.90;;;;;;5073138;28;19927;-69
2023/01/17 14:17:54;;;;;;;;;;;23.00;99.90;;;;;;5089590;28;20340;-68
2023/01/17 14:20:21;;;;;;;;;;;23.00;99.90;;;;;;5095010;28;19931;-69
2023/01/17 14:22:50;;;;;;;;;;;23.00;99.90;;;;;;5084298;28;19916;-69
2023/01/17 14:25:18;;;;;;;;;;;23.00;99.90;;;;;;5073491;28;19931;-68
2023/01/17 14:27:56;;;;;;;;;;;22.90;99.90;;;;;;5087963;28;20349;-69
2023/01/17 14:30:42;;;;;;;;;;;22.90;99.90;;;;;;5092848;28;20261;-69
2023/01/17 14:33:22;;;;;;;;;;;22.90;99.90;;;;;;5093223;28;19980;-70
2023/01/17 14:35:54;;;;;;;;;;;22.80;99.90;;;;;;5093356;28;19922;-68
2023/01/17 14:38:22;;;;;;;;;;;22.80;99.90;;;;;;5090441;28;19958;-69
2023/01/17 14:40:53;;;;;;;;;;;22.80;99.90;;;;;;5094169;28;20338;-68
2023/01/17 14:43:21;;;;;;;;;;;22.80;99.90;;;;;;5092291;28;19908;-68
2023/01/17 14:45:48;;;;;;;;;;;22.80;99.90;;;;;;5093930;28;20315;-69
2023/01/17 14:48:14;;;;;;;;;;;22.80;99.90;;;;;;5092347;28;19912;-67
2023/01/17 14:50:42;;;;;;;;;;;22.70;99.90;;;;;;5093590;28;20386;-69
2023/01/17 14:53:14;;;;;;;;;;;22.70;99.90;;;;;;5094769;28;19935;-69
2023/01/17 14:55:47;;;;;;;;;;;22.70;99.90;;;;;;5094475;28;19995;-69
2023/01/17 14:58:17;;;;;;;;;;;22.70;99.90;;;;;;5093757;28;19919;-69
2023/01/17 15:00:44;;;;;;;;;;;22.70;99.90;;;;;;5094235;28;19976;-70
2023/01/17 15:03:11;;;;;;;;;;;22.70;99.90;;;;;;5094472;28;20345;-69
2023/01/17 15:05:44;;;;;;;;;;;22.60;99.90;;;;;;5094315;28;19929;-69
2023/01/17 15:08:17;;;;;;;;;;;22.70;99.90;;;;;;5077048;28;19919;-69
2023/01/17 15:10:52;;;;;;;;;;;22.60;99.90;;;;;;5073899;28;19912;-69
2023/01/17 15:13:21;;;;;;;;;;;22.60;99.90;;;;;;5074106;28;19909;-69
2023/01/17 15:15:48;;;;;;;;;;;22.50;99.90;;;;;;5074045;28;19916;-69
2023/01/17 15:18:18;;;;;;;;;;;22.50;99.90;;;;;;5092317;28;19919;-69
2023/01/17 15:20:50;;;;;;;;;;;22.40;99.90;;;;;;5084240;28;20361;-70
2023/01/17 15:23:19;;;;;;;;;;;22.40;99.90;;;;;;5073468;28;19908;-69
2023/01/17 15:25:47;;;;;;;;;;;22.40;99.90;;;;;;5073235;28;19919;-69
2023/01/17 15:28:14;;;;;;;;;;;22.40;99.90;;;;;;5092102;28;19908;-70
2023/01/17 15:31:01;;;;;;;;;;;22.30;99.90;;;;;;5093122;28;19912;-70
2023/01/17 15:33:29;;;;;;;;;;;22.30;99.90;;;;;;5093385;28;19923;-70
2023/01/17 15:36:06;;;;;;;;;;;22.30;99.90;;;;;;5091657;28;20003;-69
2023/01/17 15:38:34;;;;;;;;;;;22.20;99.90;;;;;;5073127;28;19916;-70
2023/01/17 15:41:12;;;;;;;;;;;22.20;99.90;;;;;;5073156;28;19916;-69
2023/01/17 15:43:40;;;;;;;;;;;22.20;99.90;;;;;;5073196;28;19915;-69
2023/01/17 15:46:06;;;;;;;;;;;22.10;99.90;;;;;;5075253;28;19912;-69
2023/01/17 15:48:38;;;;;;;;;;;22.10;99.90;;;;;;5093073;28;19919;-68
2023/01/17 15:51:04;;;;;;;;;;;22.10;99.90;;;;;;5092840;28;19918;-68
2023/01/17 15:53:33;;;;;;;;;;;22.10;99.90;;;;;;5092880;28;19908;-69
2023/01/17 15:56:00;;;;;;;;;;;22.10;99.90;;;;;;5090517;28;19916;-69